sensor_id;sensor_type;location;lat;lon;timestamp;P1;durP1;ratioP1;P2;durP2;ratioP2
3767;SDS011;1899;49.966;7.106;2023-03-12T05:00:44;5.25;;;4.10;;
3767;SDS011;1899;49.966;7.106;2023-03-12T05:03:09;5.50;;;4.20;;
3767;SDS011;1899;49.966;7.106;2023-03-12T05:05:35;6.20;;;4.30;;
3767;SDS011;1899;49.966;7.106;2023-03-12T05:08:00;6.07;;;4.00;;
3767;SDS011;1899;49.966;7.106;2023-03-12T05:10:25;5.10;;;4.60;;
3767;SDS011;1899;49.966;7.106;2023-03-12T05:12:51;6.63;;;4.10;;
3767;SDS011;1899;49.966;7.106;2023-03-12T05:15:16;5.83;;;4.00;;
3767;SDS011;1899;49.966;7.106;2023-03-12T05:17:42;6.73;;;4.13;;
3767;SDS011;1899;49.966;7.106;2023-03-12T05:20:07;6.47;;;4.00;;
3767;SDS011;1899;49.966;7.106;2023-03-12T05:22:33;4.60;;;3.80;;
3767;SDS011;1899;49.966;7.106;2023-03-12T05:24:58;6.27;;;4.10;;
3767;SDS011;1899;49.966;7.106;2023-03-12T05:27:23;6.03;;;4.10;;
3767;SDS011;1899;49.966;7.106;2023-03-12T05:29:50;7.18;;;4.38;;
3767;SDS011;1899;49.966;7.106;2023-03-12T05:32:15;6.37;;;3.77;;
3767;SDS011;1899;49.966;7.106;2023-03-12T05:34:40;7.40;;;3.93;;
3767;SDS011;1899;49.966;7.106;2023-03-12T05:37:05;5.60;;;4.40;;
3767;SDS011;1899;49.966;7.106;2023-03-12T05:39:31;5.53;;;3.47;;
3767;SDS011;1899;49.966;7.106;2023-03-12T05:41:56;3.93;;;3.53;;
3767;SDS011;1899;49.966;7.106;2023-03-12T05:44:25;6.00;;;4.00;;
3767;SDS011;1899;49.966;7.106;2023-03-12T05:46:50;8.15;;;4.10;;
3767;SDS011;1899;49.966;7.106;2023-03-12T05:49:16;6.80;;;4.50;;
3767;SDS011;1899;49.966;7.106;2023-03-12T05:51:42;7.97;;;3.90;;
3767;SDS011;1899;49.966;7.106;2023-03-12T05:54:07;7.37;;;3.87;;
3767;SDS011;1899;49.966;7.106;2023-03-12T05:56:34;4.97;;;3.90;;
3767;SDS011;1899;49.966;7.106;2023-03-12T05:58:59;7.75;;;4.03;;
3767;SDS011;1899;49.966;7.106;2023-03-12T06:01:25;7.85;;;4.22;;
3767;SDS011;1899;49.966;7.106;2023-03-12T06:03:51;5.40;;;4.35;;
3767;SDS011;1899;49.966;7.106;2023-03-12T06:06:16;7.45;;;3.88;;
3767;SDS011;1899;49.966;7.106;2023-03-12T06:08:42;6.90;;;3.80;;
3767;SDS011;1899;49.966;7.106;2023-03-12T06:11:07;5.40;;;3.80;;
3767;SDS011;1899;49.966;7.106;2023-03-12T06:13:32;5.90;;;4.07;;
3767;SDS011;1899;49.966;7.106;2023-03-12T06:16:05;5.37;;;4.20;;
3767;SDS011;1899;49.966;7.106;2023-03-12T06:18:31;6.10;;;3.67;;
3767;SDS011;1899;49.966;7.106;2023-03-12T06:21:06;7.20;;;4.63;;
3767;SDS011;1899;49.966;7.106;2023-03-12T06:23:31;6.53;;;4.10;;
3767;SDS011;1899;49.966;7.106;2023-03-12T06:25:57;6.50;;;4.38;;
3767;SDS011;1899;49.966;7.106;2023-03-12T06:28:22;3.80;;;3.43;;
3767;SDS011;1899;49.966;7.106;2023-03-12T06:30:47;8.97;;;4.37;;
3767;SDS011;1899;49.966;7.106;2023-03-12T06:33:12;6.03;;;4.23;;
3767;SDS011;1899;49.966;7.106;2023-03-12T06:35:38;7.27;;;4.33;;
3767;SDS011;1899;49.966;7.106;2023-03-12T06:38:03;7.33;;;4.13;;
3767;SDS011;1899;49.966;7.106;2023-03-12T06:40:29;9.10;;;4.70;;
3767;SDS011;1899;49.966;7.106;2023-03-12T06:42:54;8.40;;;5.03;;
3767;SDS011;1899;49.966;7.106;2023-03-12T06:45:19;7.97;;;5.60;;
3767;SDS011;1899;49.966;7.106;2023-03-12T06:47:45;7.53;;;5.27;;
3767;SDS011;1899;49.966;7.106;2023-03-12T06:50:10;7.07;;;5.20;;
3767;SDS011;1899;49.966;7.106;2023-03-12T06:52:35;8.10;;;5.00;;
3767;SDS011;1899;49.966;7.106;2023-03-12T06:55:01;6.78;;;4.57;;
3767;SDS011;1899;49.966;7.106;2023-03-12T06:57:26;7.37;;;4.90;;
3767;SDS011;1899;49.966;7.106;2023-03-12T06:59:51;8.47;;;4.80;;
3767;SDS011;1899;49.966;7.106;2023-03-12T07:02:16;6.33;;;4.17;;
3767;SDS011;1899;49.966;7.106;2023-03-12T07:04:42;6.10;;;4.27;;
3767;SDS011;1899;49.966;7.106;2023-03-12T07:07:07;5.53;;;3.90;;
3767;SDS011;1899;49.966;7.106;2023-03-12T07:09:33;5.85;;;4.63;;
3767;SDS011;1899;49.966;7.106;2023-03-12T07:11:58;6.70;;;4.30;;
3767;SDS011;1899;49.966;7.106;2023-03-12T07:14:23;7.40;;;4.80;;
3767;SDS011;1899;49.966;7.106;2023-03-12T07:16:48;7.23;;;4.80;;
3767;SDS011;1899;49.966;7.106;2023-03-12T07:19:14;6.07;;;4.93;;
3767;SDS011;1899;49.966;7.106;2023-03-12T07:21:39;5.90;;;4.40;;
3767;SDS011;1899;49.966;7.106;2023-03-12T07:24:04;5.97;;;3.77;;
3767;SDS011;1899;49.966;7.106;2023-03-12T07:26:32;6.78;;;4.00;;
3767;SDS011;1899;49.966;7.106;2023-03-12T07:28:58;8.65;;;4.00;;
3767;SDS011;1899;49.966;7.106;2023-03-12T07:31:23;6.00;;;4.43;;
3767;SDS011;1899;49.966;7.106;2023-03-12T07:33:48;6.27;;;4.27;;
3767;SDS011;1899;49.966;7.106;2023-03-12T07:36:14;5.90;;;4.63;;
3767;SDS011;1899;49.966;7.106;2023-03-12T07:38:39;8.63;;;4.07;;
3767;SDS011;1899;49.966;7.106;2023-03-12T07:41:04;7.23;;;4.37;;
3767;SDS011;1899;49.966;7.106;2023-03-12T07:43:29;7.00;;;4.30;;
3767;SDS011;1899;49.966;7.106;2023-03-12T07:45:55;6.30;;;4.40;;
3767;SDS011;1899;49.966;7.106;2023-03-12T07:48:20;8.03;;;4.20;;
3767;SDS011;1899;49.966;7.106;2023-03-12T07:50:45;8.03;;;4.20;;
3767;SDS011;1899;49.966;7.106;2023-03-12T07:53:11;5.60;;;4.20;;
3767;SDS011;1899;49.966;7.106;2023-03-12T07:55:36;6.90;;;4.20;;
3767;SDS011;1899;49.966;7.106;2023-03-12T07:58:01;11.07;;;4.70;;
3767;SDS011;1899;49.966;7.106;2023-03-12T08:00:27;6.30;;;4.47;;
3767;SDS011;1899;49.966;7.106;2023-03-12T08:02:52;7.00;;;4.50;;
3767;SDS011;1899;49.966;7.106;2023-03-12T08:05:18;6.43;;;3.93;;
3767;SDS011;1899;49.966;7.106;2023-03-12T08:07:43;6.40;;;4.30;;
3767;SDS011;1899;49.966;7.106;2023-03-12T08:10:09;10.07;;;4.60;;
3767;SDS011;1899;49.966;7.106;2023-03-12T08:12:34;7.10;;;3.80;;
3767;SDS011;1899;49.966;7.106;2023-03-12T08:15:01;8.90;;;4.47;;
3767;SDS011;1899;49.966;7.106;2023-03-12T08:17:26;8.87;;;4.47;;
3767;SDS011;1899;49.966;7.106;2023-03-12T08:19:51;6.50;;;4.20;;
3767;SDS011;1899;49.966;7.106;2023-03-12T08:22:17;5.17;;;3.30;;
3767;SDS011;1899;49.966;7.106;2023-03-12T08:24:42;8.77;;;4.57;;
3767;SDS011;1899;49.966;7.106;2023-03-12T08:27:07;7.10;;;4.67;;
3767;SDS011;1899;49.966;7.106;2023-03-12T08:29:33;7.10;;;4.60;;
3767;SDS011;1899;49.966;7.106;2023-03-12T08:31:58;9.32;;;4.55;;
3767;SDS011;1899;49.966;7.106;2023-03-12T08:34:23;6.93;;;4.40;;
3767;SDS011;1899;49.966;7.106;2023-03-12T08:36:49;9.87;;;4.80;;
3767;SDS011;1899;49.966;7.106;2023-03-12T08:39:14;7.20;;;4.53;;
3767;SDS011;1899;49.966;7.106;2023-03-12T08:41:40;10.03;;;5.30;;
3767;SDS011;1899;49.966;7.106;2023-03-12T08:44:05;10.80;;;5.83;;
3767;SDS011;1899;49.966;7.106;2023-03-12T08:46:30;12.17;;;6.60;;
3767;SDS011;1899;49.966;7.106;2023-03-12T08:48:56;10.00;;;5.80;;
3767;SDS011;1899;49.966;7.106;2023-03-12T08:51:21;8.90;;;5.80;;
3767;SDS011;1899;49.966;7.106;2023-03-12T08:53:46;10.67;;;6.73;;
3767;SDS011;1899;49.966;7.106;2023-03-12T08:56:11;12.70;;;6.80;;
3767;SDS011;1899;49.966;7.106;2023-03-12T08:58:37;9.30;;;6.43;;
3767;SDS011;1899;49.966;7.106;2023-03-12T09:01:06;12.50;;;7.70;;
3767;SDS011;1899;49.966;7.106;2023-03-12T09:03:31;9.60;;;6.43;;
3767;SDS011;1899;49.966;7.106;2023-03-12T09:06:07;9.93;;;6.40;;
3767;SDS011;1899;49.966;7.106;2023-03-12T09:08:37;9.10;;;7.23;;
3767;SDS011;1899;49.966;7.106;2023-03-12T09:11:02;10.30;;;7.03;;
3767;SDS011;1899;49.966;7.106;2023-03-12T09:13:27;12.13;;;7.10;;
3767;SDS011;1899;49.966;7.106;2023-03-12T09:15:57;12.30;;;8.40;;
3767;SDS011;1899;49.966;7.106;2023-03-12T09:18:22;11.40;;;7.25;;
3767;SDS011;1899;49.966;7.106;2023-03-12T09:20:47;11.70;;;7.90;;
3767;SDS011;1899;49.966;7.106;2023-03-12T09:23:13;14.33;;;8.47;;
3767;SDS011;1899;49.966;7.106;2023-03-12T09:25:38;13.17;;;8.20;;
3767;SDS011;1899;49.966;7.106;2023-03-12T09:28:03;9.73;;;7.73;;
3767;SDS011;1899;49.966;7.106;2023-03-12T09:30:29;11.80;;;8.23;;
3767;SDS011;1899;49.966;7.106;2023-03-12T09:32:55;11.05;;;9.05;;
3767;SDS011;1899;49.966;7.106;2023-03-12T09:35:21;10.10;;;8.47;;
3767;SDS011;1899;49.966;7.106;2023-03-12T09:37:47;15.43;;;9.27;;
3767;SDS011;1899;49.966;7.106;2023-03-12T09:40:19;10.13;;;8.13;;
3767;SDS011;1899;49.966;7.106;2023-03-12T09:42:49;11.45;;;8.95;;
3767;SDS011;1899;49.966;7.106;2023-03-12T09:45:20;9.48;;;8.10;;
3767;SDS011;1899;49.966;7.106;2023-03-12T09:47:48;12.60;;;8.60;;
3767;SDS011;1899;49.966;7.106;2023-03-12T09:50:34;12.93;;;8.82;;
3767;SDS011;1899;49.966;7.106;2023-03-12T09:55:39;10.20;;;8.80;;
3767;SDS011;1899;49.966;7.106;2023-03-12T09:58:12;11.20;;;8.55;;
3767;SDS011;1899;49.966;7.106;2023-03-12T10:00:38;11.68;;;8.40;;
3767;SDS011;1899;49.966;7.106;2023-03-12T10:03:06;11.57;;;9.00;;
3767;SDS011;1899;49.966;7.106;2023-03-12T10:08:03;9.95;;;8.95;;
3767;SDS011;1899;49.966;7.106;2023-03-12T10:18:27;9.77;;;8.27;;
3767;SDS011;1899;49.966;7.106;2023-03-12T10:21:09;11.40;;;8.57;;
3767;SDS011;1899;49.966;7.106;2023-03-12T10:26:13;10.00;;;8.80;;
3767;SDS011;1899;49.966;7.106;2023-03-12T10:31:06;10.53;;;8.47;;
3767;SDS011;1899;49.966;7.106;2023-03-12T10:33:43;10.05;;;8.45;;
3767;SDS011;1899;49.966;7.106;2023-03-12T10:36:15;9.85;;;8.20;;
3767;SDS011;1899;49.966;7.106;2023-03-12T10:38:41;8.68;;;7.78;;
3767;SDS011;1899;49.966;7.106;2023-03-12T10:41:13;10.03;;;7.83;;
3767;SDS011;1899;49.966;7.106;2023-03-12T10:43:39;9.35;;;7.90;;
3767;SDS011;1899;49.966;7.106;2023-03-12T10:46:15;11.80;;;7.47;;
3767;SDS011;1899;49.966;7.106;2023-03-12T10:48:45;9.23;;;7.67;;
3767;SDS011;1899;49.966;7.106;2023-03-12T10:51:11;10.43;;;7.43;;
3767;SDS011;1899;49.966;7.106;2023-03-12T10:53:37;10.20;;;7.10;;
3767;SDS011;1899;49.966;7.106;2023-03-12T10:56:04;8.03;;;7.13;;
3767;SDS011;1899;49.966;7.106;2023-03-12T10:58:30;9.23;;;6.93;;
3767;SDS011;1899;49.966;7.106;2023-03-12T11:00:57;10.10;;;7.30;;
3767;SDS011;1899;49.966;7.106;2023-03-12T11:03:22;7.65;;;6.80;;
3767;SDS011;1899;49.966;7.106;2023-03-12T11:05:48;8.40;;;7.40;;
3767;SDS011;1899;49.966;7.106;2023-03-12T11:08:24;8.30;;;6.68;;
3767;SDS011;1899;49.966;7.106;2023-03-12T11:10:51;7.00;;;6.30;;
3767;SDS011;1899;49.966;7.106;2023-03-12T11:13:30;10.05;;;6.80;;
3767;SDS011;1899;49.966;7.106;2023-03-12T11:16:00;7.32;;;5.38;;
3767;SDS011;1899;49.966;7.106;2023-03-12T11:20:52;10.67;;;6.30;;
3767;SDS011;1899;49.966;7.106;2023-03-12T11:23:22;10.63;;;5.80;;
3767;SDS011;1899;49.966;7.106;2023-03-12T11:25:52;9.65;;;6.10;;
3767;SDS011;1899;49.966;7.106;2023-03-12T11:28:19;8.80;;;6.00;;
3767;SDS011;1899;49.966;7.106;2023-03-12T11:30:46;8.45;;;4.80;;
3767;SDS011;1899;49.966;7.106;2023-03-12T11:33:13;9.65;;;6.10;;
3767;SDS011;1899;49.966;7.106;2023-03-12T11:35:44;10.07;;;5.20;;
3767;SDS011;1899;49.966;7.106;2023-03-12T11:38:17;9.68;;;5.53;;
3767;SDS011;1899;49.966;7.106;2023-03-12T11:56:25;15.57;;;6.10;;
3767;SDS011;1899;49.966;7.106;2023-03-12T12:01:47;11.20;;;6.40;;
3767;SDS011;1899;49.966;7.106;2023-03-12T12:04:34;13.23;;;6.07;;
3767;SDS011;1899;49.966;7.106;2023-03-12T12:09:49;15.35;;;6.43;;
3767;SDS011;1899;49.966;7.106;2023-03-12T12:18:13;8.98;;;5.50;;
3767;SDS011;1899;49.966;7.106;2023-03-12T12:20:27;11.57;;;4.95;;
3767;SDS011;1899;49.966;7.106;2023-03-12T12:23:01;11.70;;;5.57;;
3767;SDS011;1899;49.966;7.106;2023-03-12T12:30:43;15.95;;;6.05;;
3767;SDS011;1899;49.966;7.106;2023-03-12T12:35:46;11.65;;;5.63;;
3767;SDS011;1899;49.966;7.106;2023-03-12T12:40:59;14.23;;;4.83;;
3767;SDS011;1899;49.966;7.106;2023-03-12T12:43:41;11.18;;;5.25;;
3767;SDS011;1899;49.966;7.106;2023-03-12T12:48:34;14.63;;;4.50;;
3767;SDS011;1899;49.966;7.106;2023-03-12T12:51:00;10.82;;;4.32;;
3767;SDS011;1899;49.966;7.106;2023-03-12T12:56:01;14.73;;;5.30;;
3767;SDS011;1899;49.966;7.106;2023-03-12T13:01:01;13.35;;;4.35;;
3767;SDS011;1899;49.966;7.106;2023-03-12T13:03:26;10.70;;;4.17;;
3767;SDS011;1899;49.966;7.106;2023-03-12T13:05:54;12.20;;;3.97;;
3767;SDS011;1899;49.966;7.106;2023-03-12T13:11:26;15.77;;;4.07;;
3767;SDS011;1899;49.966;7.106;2023-03-12T13:13:50;12.77;;;4.15;;
3767;SDS011;1899;49.966;7.106;2023-03-12T13:16:26;9.90;;;3.45;;
3767;SDS011;1899;49.966;7.106;2023-03-12T13:18:56;9.67;;;3.67;;
3767;SDS011;1899;49.966;7.106;2023-03-12T13:21:28;8.93;;;2.70;;
3767;SDS011;1899;49.966;7.106;2023-03-12T13:24:03;11.77;;;3.60;;
3767;SDS011;1899;49.966;7.106;2023-03-12T13:29:12;13.02;;;3.80;;
3767;SDS011;1899;49.966;7.106;2023-03-12T13:31:42;11.30;;;3.35;;
3767;SDS011;1899;49.966;7.106;2023-03-12T13:36:36;8.95;;;3.50;;
3767;SDS011;1899;49.966;7.106;2023-03-12T13:43:58;12.63;;;3.20;;
3767;SDS011;1899;49.966;7.106;2023-03-12T13:46:34;9.32;;;3.65;;
3767;SDS011;1899;49.966;7.106;2023-03-12T13:49:02;9.60;;;2.90;;
3767;SDS011;1899;49.966;7.106;2023-03-12T13:51:29;12.57;;;3.33;;
3767;SDS011;1899;49.966;7.106;2023-03-12T13:53:56;11.05;;;2.90;;
3767;SDS011;1899;49.966;7.106;2023-03-12T13:56:27;8.73;;;3.70;;
3767;SDS011;1899;49.966;7.106;2023-03-12T13:58:54;7.90;;;3.00;;
3767;SDS011;1899;49.966;7.106;2023-03-12T14:01:20;9.30;;;3.30;;
3767;SDS011;1899;49.966;7.106;2023-03-12T14:03:48;10.85;;;3.30;;
3767;SDS011;1899;49.966;7.106;2023-03-12T14:06:19;8.02;;;2.95;;
3767;SDS011;1899;49.966;7.106;2023-03-12T14:16:50;11.40;;;3.75;;
3767;SDS011;1899;49.966;7.106;2023-03-12T14:19:17;12.05;;;3.67;;
3767;SDS011;1899;49.966;7.106;2023-03-12T14:21:44;10.80;;;2.80;;
3767;SDS011;1899;49.966;7.106;2023-03-12T14:24:46;10.80;;;3.13;;
3767;SDS011;1899;49.966;7.106;2023-03-12T14:27:03;10.55;;;3.10;;
3767;SDS011;1899;49.966;7.106;2023-03-12T14:32:02;14.38;;;3.30;;
3767;SDS011;1899;49.966;7.106;2023-03-12T14:34:37;12.30;;;3.38;;
3767;SDS011;1899;49.966;7.106;2023-03-12T14:37:10;11.68;;;3.50;;
3767;SDS011;1899;49.966;7.106;2023-03-12T14:39:48;8.53;;;3.50;;
3767;SDS011;1899;49.966;7.106;2023-03-12T14:42:22;11.50;;;4.35;;
3767;SDS011;1899;49.966;7.106;2023-03-12T14:44:54;14.73;;;3.60;;
3767;SDS011;1899;49.966;7.106;2023-03-12T14:47:21;13.10;;;3.40;;
3767;SDS011;1899;49.966;7.106;2023-03-12T14:49:46;14.30;;;3.80;;
3767;SDS011;1899;49.966;7.106;2023-03-12T14:52:12;16.10;;;3.80;;
3767;SDS011;1899;49.966;7.106;2023-03-12T14:54:37;11.88;;;3.60;;
3767;SDS011;1899;49.966;7.106;2023-03-12T14:57:11;9.35;;;3.03;;
3767;SDS011;1899;49.966;7.106;2023-03-12T14:59:36;12.02;;;3.75;;
3767;SDS011;1899;49.966;7.106;2023-03-12T15:02:06;12.02;;;3.78;;
3767;SDS011;1899;49.966;7.106;2023-03-12T15:04:34;13.70;;;3.72;;
3767;SDS011;1899;49.966;7.106;2023-03-12T15:07:00;11.98;;;3.40;;
3767;SDS011;1899;49.966;7.106;2023-03-12T15:09:28;11.70;;;3.20;;
3767;SDS011;1899;49.966;7.106;2023-03-12T15:11:58;12.60;;;3.83;;
3767;SDS011;1899;49.966;7.106;2023-03-12T15:14:25;11.95;;;3.90;;
3767;SDS011;1899;49.966;7.106;2023-03-12T15:16:51;17.02;;;4.85;;
3767;SDS011;1899;49.966;7.106;2023-03-12T15:19:34;16.07;;;4.73;;
3767;SDS011;1899;49.966;7.106;2023-03-12T15:21:59;14.25;;;3.88;;
3767;SDS011;1899;49.966;7.106;2023-03-12T15:24:36;14.20;;;4.20;;
3767;SDS011;1899;49.966;7.106;2023-03-12T15:27:17;16.30;;;4.35;;
3767;SDS011;1899;49.966;7.106;2023-03-12T15:29:42;15.55;;;4.45;;
3767;SDS011;1899;49.966;7.106;2023-03-12T15:32:12;15.60;;;4.70;;
3767;SDS011;1899;49.966;7.106;2023-03-12T15:34:37;14.25;;;4.53;;
3767;SDS011;1899;49.966;7.106;2023-03-12T15:39:49;16.60;;;4.13;;
3767;SDS011;1899;49.966;7.106;2023-03-12T15:42:15;15.80;;;5.43;;
3767;SDS011;1899;49.966;7.106;2023-03-12T15:47:13;19.83;;;5.75;;
3767;SDS011;1899;49.966;7.106;2023-03-12T15:49:39;14.37;;;4.60;;
3767;SDS011;1899;49.966;7.106;2023-03-12T15:54:36;17.95;;;4.88;;
3767;SDS011;1899;49.966;7.106;2023-03-12T15:57:14;13.05;;;4.40;;
3767;SDS011;1899;49.966;7.106;2023-03-12T15:59:42;16.60;;;4.72;;
3767;SDS011;1899;49.966;7.106;2023-03-12T16:02:10;16.77;;;5.57;;
3767;SDS011;1899;49.966;7.106;2023-03-12T16:04:36;15.00;;;4.53;;
3767;SDS011;1899;49.966;7.106;2023-03-12T16:07:01;15.30;;;4.30;;
3767;SDS011;1899;49.966;7.106;2023-03-12T16:09:27;16.08;;;4.30;;
3767;SDS011;1899;49.966;7.106;2023-03-12T16:11:53;14.73;;;4.40;;
3767;SDS011;1899;49.966;7.106;2023-03-12T16:14:23;16.10;;;4.43;;
3767;SDS011;1899;49.966;7.106;2023-03-12T16:16:51;17.42;;;5.38;;
3767;SDS011;1899;49.966;7.106;2023-03-12T16:19:18;15.63;;;4.50;;
3767;SDS011;1899;49.966;7.106;2023-03-12T16:21:44;15.35;;;4.50;;
3767;SDS011;1899;49.966;7.106;2023-03-12T16:24:09;12.43;;;4.28;;
3767;SDS011;1899;49.966;7.106;2023-03-12T16:26:36;18.10;;;5.20;;
3767;SDS011;1899;49.966;7.106;2023-03-12T16:29:02;17.73;;;4.78;;
3767;SDS011;1899;49.966;7.106;2023-03-12T16:31:28;16.13;;;4.50;;
3767;SDS011;1899;49.966;7.106;2023-03-12T16:33:53;13.77;;;4.80;;
3767;SDS011;1899;49.966;7.106;2023-03-12T16:36:18;15.27;;;4.67;;
3767;SDS011;1899;49.966;7.106;2023-03-12T16:38:44;13.50;;;5.07;;
3767;SDS011;1899;49.966;7.106;2023-03-12T16:41:11;14.90;;;4.95;;
3767;SDS011;1899;49.966;7.106;2023-03-12T16:43:37;16.73;;;4.30;;
3767;SDS011;1899;49.966;7.106;2023-03-12T16:46:02;20.83;;;5.10;;
3767;SDS011;1899;49.966;7.106;2023-03-12T16:48:31;14.73;;;4.63;;
3767;SDS011;1899;49.966;7.106;2023-03-12T16:50:56;16.47;;;4.53;;
3767;SDS011;1899;49.966;7.106;2023-03-12T16:53:22;16.98;;;4.80;;
3767;SDS011;1899;49.966;7.106;2023-03-12T16:55:48;16.73;;;4.28;;
3767;SDS011;1899;49.966;7.106;2023-03-12T16:58:15;14.20;;;4.22;;
3767;SDS011;1899;49.966;7.106;2023-03-12T17:00:41;19.20;;;4.93;;
3767;SDS011;1899;49.966;7.106;2023-03-12T17:03:06;13.30;;;4.20;;
3767;SDS011;1899;49.966;7.106;2023-03-12T17:05:31;11.33;;;4.33;;
3767;SDS011;1899;49.966;7.106;2023-03-12T17:07:57;15.77;;;4.40;;
3767;SDS011;1899;49.966;7.106;2023-03-12T17:10:23;17.30;;;4.40;;
3767;SDS011;1899;49.966;7.106;2023-03-12T17:12:49;14.30;;;5.40;;
3767;SDS011;1899;49.966;7.106;2023-03-12T17:15:25;15.97;;;5.27;;
3767;SDS011;1899;49.966;7.106;2023-03-12T17:17:52;15.27;;;4.27;;
3767;SDS011;1899;49.966;7.106;2023-03-12T17:20:20;13.75;;;4.03;;
3767;SDS011;1899;49.966;7.106;2023-03-12T17:22:45;16.23;;;4.70;;
3767;SDS011;1899;49.966;7.106;2023-03-12T17:25:21;17.63;;;4.40;;
3767;SDS011;1899;49.966;7.106;2023-03-12T17:27:46;12.05;;;4.38;;
3767;SDS011;1899;49.966;7.106;2023-03-12T17:30:12;16.87;;;5.10;;
3767;SDS011;1899;49.966;7.106;2023-03-12T17:32:37;12.47;;;4.40;;
3767;SDS011;1899;49.966;7.106;2023-03-12T17:35:02;16.37;;;4.80;;
3767;SDS011;1899;49.966;7.106;2023-03-12T17:37:30;16.63;;;4.60;;
3767;SDS011;1899;49.966;7.106;2023-03-12T17:39:55;14.50;;;3.90;;
3767;SDS011;1899;49.966;7.106;2023-03-12T17:42:21;12.63;;;4.27;;
3767;SDS011;1899;49.966;7.106;2023-03-12T17:44:46;16.20;;;4.67;;
3767;SDS011;1899;49.966;7.106;2023-03-12T17:47:11;15.68;;;4.35;;
3767;SDS011;1899;49.966;7.106;2023-03-12T17:49:37;13.13;;;4.20;;
3767;SDS011;1899;49.966;7.106;2023-03-12T17:52:02;12.27;;;4.43;;
3767;SDS011;1899;49.966;7.106;2023-03-12T17:54:27;18.63;;;4.73;;
3767;SDS011;1899;49.966;7.106;2023-03-12T17:56:52;11.03;;;4.17;;
3767;SDS011;1899;49.966;7.106;2023-03-12T17:59:18;13.60;;;4.40;;
3767;SDS011;1899;49.966;7.106;2023-03-12T18:01:43;12.80;;;4.10;;
3767;SDS011;1899;49.966;7.106;2023-03-12T18:04:08;16.50;;;5.10;;
3767;SDS011;1899;49.966;7.106;2023-03-12T18:06:34;14.37;;;4.63;;
3767;SDS011;1899;49.966;7.106;2023-03-12T18:08:59;14.40;;;4.20;;
3767;SDS011;1899;49.966;7.106;2023-03-12T18:11:24;18.90;;;4.80;;
3767;SDS011;1899;49.966;7.106;2023-03-12T18:13:49;14.77;;;5.17;;
3767;SDS011;1899;49.966;7.106;2023-03-12T18:16:16;20.08;;;5.03;;
3767;SDS011;1899;49.966;7.106;2023-03-12T18:18:41;16.13;;;4.40;;
3767;SDS011;1899;49.966;7.106;2023-03-12T18:21:07;14.10;;;4.73;;
3767;SDS011;1899;49.966;7.106;2023-03-12T18:23:32;13.13;;;4.10;;
3767;SDS011;1899;49.966;7.106;2023-03-12T18:25:57;13.07;;;4.80;;
3767;SDS011;1899;49.966;7.106;2023-03-12T18:28:22;13.50;;;4.40;;
3767;SDS011;1899;49.966;7.106;2023-03-12T18:30:48;14.00;;;4.50;;
3767;SDS011;1899;49.966;7.106;2023-03-12T18:33:13;16.07;;;4.90;;
3767;SDS011;1899;49.966;7.106;2023-03-12T18:35:38;13.37;;;4.80;;
3767;SDS011;1899;49.966;7.106;2023-03-12T18:38:04;11.77;;;4.20;;
3767;SDS011;1899;49.966;7.106;2023-03-12T18:40:29;15.60;;;4.80;;
3767;SDS011;1899;49.966;7.106;2023-03-12T18:42:57;15.60;;;4.55;;
3767;SDS011;1899;49.966;7.106;2023-03-12T18:45:22;13.30;;;4.38;;
3767;SDS011;1899;49.966;7.106;2023-03-12T18:47:47;14.10;;;4.70;;
3767;SDS011;1899;49.966;7.106;2023-03-12T18:50:14;11.55;;;4.18;;
3767;SDS011;1899;49.966;7.106;2023-03-12T18:52:40;13.00;;;4.30;;
3767;SDS011;1899;49.966;7.106;2023-03-12T18:55:05;16.67;;;4.47;;
3767;SDS011;1899;49.966;7.106;2023-03-12T18:57:30;15.70;;;4.55;;
3767;SDS011;1899;49.966;7.106;2023-03-12T18:59:56;14.20;;;4.60;;
3767;SDS011;1899;49.966;7.106;2023-03-12T19:02:21;14.47;;;4.07;;
3767;SDS011;1899;49.966;7.106;2023-03-12T19:04:47;14.30;;;4.30;;
3767;SDS011;1899;49.966;7.106;2023-03-12T19:07:13;12.30;;;4.50;;
3767;SDS011;1899;49.966;7.106;2023-03-12T19:09:38;19.00;;;5.10;;
3767;SDS011;1899;49.966;7.106;2023-03-12T19:12:03;15.30;;;4.77;;
3767;SDS011;1899;49.966;7.106;2023-03-12T19:14:29;19.53;;;4.60;;
3767;SDS011;1899;49.966;7.106;2023-03-12T19:16:54;12.80;;;4.10;;
3767;SDS011;1899;49.966;7.106;2023-03-12T19:19:20;16.55;;;4.28;;
3767;SDS011;1899;49.966;7.106;2023-03-12T19:21:45;16.02;;;4.50;;
3767;SDS011;1899;49.966;7.106;2023-03-12T19:24:11;14.45;;;4.35;;
3767;SDS011;1899;49.966;7.106;2023-03-12T19:26:36;16.50;;;4.70;;
3767;SDS011;1899;49.966;7.106;2023-03-12T19:29:01;15.10;;;4.37;;
3767;SDS011;1899;49.966;7.106;2023-03-12T19:31:27;15.00;;;4.40;;
3767;SDS011;1899;49.966;7.106;2023-03-12T19:33:52;14.50;;;3.83;;
3767;SDS011;1899;49.966;7.106;2023-03-12T19:36:17;17.80;;;4.67;;
3767;SDS011;1899;49.966;7.106;2023-03-12T19:38:42;14.53;;;4.40;;
3767;SDS011;1899;49.966;7.106;2023-03-12T19:41:08;14.27;;;4.43;;
3767;SDS011;1899;49.966;7.106;2023-03-12T19:43:33;13.30;;;4.60;;
3767;SDS011;1899;49.966;7.106;2023-03-12T19:45:59;13.80;;;3.93;;
3767;SDS011;1899;49.966;7.106;2023-03-12T19:48:24;13.35;;;4.35;;
3767;SDS011;1899;49.966;7.106;2023-03-12T19:50:49;15.13;;;4.57;;
3767;SDS011;1899;49.966;7.106;2023-03-12T19:53:15;15.27;;;3.63;;
3767;SDS011;1899;49.966;7.106;2023-03-12T19:55:41;11.40;;;3.85;;
3767;SDS011;1899;49.966;7.106;2023-03-12T19:58:09;13.50;;;3.50;;
3767;SDS011;1899;49.966;7.106;2023-03-12T20:00:34;10.70;;;4.10;;
3767;SDS011;1899;49.966;7.106;2023-03-12T20:03:00;18.33;;;4.40;;
3767;SDS011;1899;49.966;7.106;2023-03-12T20:05:25;14.83;;;4.10;;
3767;SDS011;1899;49.966;7.106;2023-03-12T20:07:51;11.47;;;3.80;;
3767;SDS011;1899;49.966;7.106;2023-03-12T20:10:16;12.10;;;4.33;;
3767;SDS011;1899;49.966;7.106;2023-03-12T20:12:43;12.75;;;4.20;;
3767;SDS011;1899;49.966;7.106;2023-03-12T20:15:09;15.02;;;5.03;;
3767;SDS011;1899;49.966;7.106;2023-03-12T20:17:35;14.63;;;4.17;;
3767;SDS011;1899;49.966;7.106;2023-03-12T20:20:00;12.93;;;3.33;;
3767;SDS011;1899;49.966;7.106;2023-03-12T20:22:25;14.93;;;4.20;;
3767;SDS011;1899;49.966;7.106;2023-03-12T20:24:53;14.57;;;3.87;;
3767;SDS011;1899;49.966;7.106;2023-03-12T20:27:19;12.98;;;3.83;;
3767;SDS011;1899;49.966;7.106;2023-03-12T20:29:45;15.93;;;4.47;;
3767;SDS011;1899;49.966;7.106;2023-03-12T20:32:11;11.70;;;3.92;;
3767;SDS011;1899;49.966;7.106;2023-03-12T20:34:36;13.55;;;3.90;;
3767;SDS011;1899;49.966;7.106;2023-03-12T20:37:02;16.33;;;4.72;;
3767;SDS011;1899;49.966;7.106;2023-03-12T20:39:27;14.60;;;4.33;;
3767;SDS011;1899;49.966;7.106;2023-03-12T20:41:52;13.93;;;4.40;;
3767;SDS011;1899;49.966;7.106;2023-03-12T20:44:17;14.13;;;4.17;;
3767;SDS011;1899;49.966;7.106;2023-03-12T20:46:43;12.23;;;3.80;;
3767;SDS011;1899;49.966;7.106;2023-03-12T20:49:08;14.55;;;4.00;;
3767;SDS011;1899;49.966;7.106;2023-03-12T20:51:34;11.87;;;3.50;;
3767;SDS011;1899;49.966;7.106;2023-03-12T20:53:59;15.23;;;4.37;;
3767;SDS011;1899;49.966;7.106;2023-03-12T20:56:24;10.13;;;4.10;;
3767;SDS011;1899;49.966;7.106;2023-03-12T20:58:49;15.77;;;4.57;;
